createdAt,value
2018-02-20T00:02:13.936Z,37.67
2018-02-20T00:04:41.561Z,33.33
2018-02-20T00:07:09.227Z,40.12
2018-02-20T00:09:36.777Z,40.45
2018-02-20T00:12:04.331Z,39.03
2018-02-20T00:14:31.930Z,50.80
2018-02-20T00:16:59.470Z,42.50
2018-02-20T00:19:27.061Z,46.03
2018-02-20T00:21:54.603Z,42.45
2018-02-20T00:24:22.499Z,38.70
2018-02-20T00:26:50.062Z,39.75
2018-02-20T00:29:17.730Z,48.03
2018-02-20T00:31:45.298Z,48.47
2018-02-20T00:34:13.656Z,44.55
2018-02-20T00:36:41.226Z,40.97
2018-02-20T00:39:08.872Z,42.62
2018-02-20T00:41:36.503Z,42.15
2018-02-20T00:44:04.041Z,43.78
2018-02-20T00:46:31.562Z,41.13
2018-02-20T00:48:59.285Z,44.20
2018-02-20T00:51:26.839Z,45.47
2018-02-20T00:53:54.360Z,48.00
2018-02-20T00:56:21.972Z,46.80
2018-02-20T00:58:49.577Z,49.15
2018-02-20T01:01:17.223Z,51.67
2018-02-20T01:03:44.770Z,53.13
2018-02-20T01:06:12.295Z,48.35
2018-02-20T01:08:39.837Z,53.95
2018-02-20T01:11:07.455Z,55.03
2018-02-20T01:13:34.998Z,54.58
2018-02-20T01:16:02.525Z,50.97
2018-02-20T01:18:30.058Z,48.38
2018-02-20T01:20:57.636Z,58.65
2018-02-20T01:23:25.188Z,59.78
2018-02-20T01:25:53.468Z,58.58
2018-02-20T01:28:21.745Z,56.55
2018-02-20T01:30:50.030Z,56.50
2018-02-20T01:33:18.462Z,49.60
2018-02-20T01:35:45.978Z,49.55
2018-02-20T01:38:13.491Z,53.25
2018-02-20T01:40:40.995Z,60.00
2018-02-20T01:43:08.506Z,51.17
2018-02-20T01:45:36.059Z,48.40
2018-02-20T01:48:03.559Z,59.67
2018-02-20T01:50:31.194Z,51.58
2018-02-20T01:52:58.787Z,54.22
2018-02-20T01:55:27.074Z,57.10
2018-02-20T01:57:55.425Z,58.75
2018-02-20T02:00:23.128Z,54.92
2018-02-20T02:02:50.631Z,57.83
2018-02-20T02:05:18.166Z,60.97
2018-02-20T02:07:45.802Z,56.72
2018-02-20T02:10:13.321Z,61.22
2018-02-20T02:12:40.857Z,56.22
2018-02-20T02:15:08.497Z,58.42
2018-02-20T02:17:36.141Z,55.15
2018-02-20T02:20:03.645Z,59.63
2018-02-20T02:22:31.146Z,57.42
2018-02-20T02:24:59.432Z,64.40
2018-02-20T02:27:28.582Z,60.58
2018-02-20T02:29:56.103Z,63.03
2018-02-20T02:32:23.643Z,64.15
2018-02-20T02:34:51.907Z,60.40
2018-02-20T02:37:19.400Z,51.60
2018-02-20T02:39:47.031Z,57.55
2018-02-20T02:42:15.333Z,61.03
2018-02-20T02:44:42.892Z,62.05
2018-02-20T02:47:10.448Z,51.40
2018-02-20T02:49:38.847Z,64.55
2018-02-20T02:52:06.453Z,55.65
2018-02-20T02:54:33.986Z,55.00
2018-02-20T02:57:01.585Z,54.85
2018-02-20T02:59:29.151Z,54.67
2018-02-20T03:01:57.543Z,58.53
2018-02-20T03:04:25.075Z,63.22
2018-02-20T03:06:52.691Z,60.08
2018-02-20T03:09:20.207Z,55.70
2018-02-20T03:11:47.710Z,59.60
2018-02-20T03:14:15.455Z,64.32
2018-02-20T03:16:43.082Z,59.03
2018-02-20T03:19:10.578Z,57.88
2018-02-20T03:21:38.112Z,58.45
2018-02-20T03:24:06.405Z,52.05
2018-02-20T03:26:34.723Z,51.78
2018-02-20T03:29:02.439Z,54.22
2018-02-20T03:31:30.110Z,63.08
2018-02-20T03:33:57.629Z,70.87
2018-02-20T03:36:25.127Z,59.55
2018-02-20T03:38:53.427Z,59.72
2018-02-20T03:41:21.000Z,61.33
2018-02-20T03:43:49.350Z,59.38
2018-02-20T03:46:17.635Z,64.55
2018-02-20T03:48:45.288Z,59.47
2018-02-20T03:51:13.570Z,61.85
2018-02-20T03:53:41.080Z,61.97
2018-02-20T03:56:08.582Z,60.38
2018-02-20T03:58:36.180Z,68.03
2018-02-20T04:01:03.890Z,60.30
2018-02-20T04:03:31.533Z,60.22
2018-02-20T04:05:59.065Z,64.30
2018-02-20T04:08:26.580Z,56.03
2018-02-20T04:10:54.986Z,58.00
2018-02-20T04:13:22.493Z,54.28
2018-02-20T04:15:50.182Z,71.03
2018-02-20T04:18:18.488Z,64.25
2018-02-20T04:20:46.027Z,64.35
2018-02-20T04:23:13.551Z,61.90
2018-02-20T04:25:41.862Z,60.88
2018-02-20T04:28:10.191Z,65.68
2018-02-20T04:30:37.743Z,56.20
2018-02-20T04:33:05.297Z,66.50
2018-02-20T04:35:32.994Z,65.12
2018-02-20T04:38:00.677Z,63.67
2018-02-20T04:40:28.290Z,69.78
2018-02-20T04:42:56.046Z,61.58
2018-02-20T04:45:23.550Z,59.08
2018-02-20T04:47:51.048Z,66.32
2018-02-20T04:50:18.604Z,58.15
2018-02-20T04:52:46.097Z,64.30
2018-02-20T04:55:13.605Z,66.30
2018-02-20T04:57:41.893Z,66.90
2018-02-20T05:00:10.992Z,64.22
2018-02-20T05:02:38.533Z,61.22
2018-02-20T05:05:06.058Z,74.93
2018-02-20T05:07:33.591Z,61.58
2018-02-20T05:10:01.089Z,74.37
2018-02-20T05:12:28.759Z,70.95
2018-02-20T05:14:57.166Z,64.68
2018-02-20T05:17:24.721Z,70.00
2018-02-20T05:19:52.376Z,61.55
2018-02-20T05:22:19.929Z,58.05
2018-02-20T05:24:48.232Z,62.35
2018-02-20T05:27:15.910Z,72.53
2018-02-20T05:29:43.484Z,64.78
2018-02-20T05:32:11.005Z,57.30
2018-02-20T05:34:39.318Z,71.22
2018-02-20T05:37:06.954Z,61.65
2018-02-20T05:39:34.636Z,61.53
2018-02-20T05:42:02.494Z,76.40
2018-02-20T05:44:30.056Z,70.07
2018-02-20T05:46:57.578Z,70.20
2018-02-20T05:49:25.883Z,71.03
2018-02-20T05:51:53.423Z,59.20
2018-02-20T05:54:20.946Z,61.83
2018-02-20T05:56:48.469Z,68.30
2018-02-20T05:59:16.002Z,68.00
2018-02-20T06:01:43.672Z,65.70
2018-02-20T06:04:11.196Z,73.70
2018-02-20T06:06:38.711Z,67.57
2018-02-20T06:09:06.295Z,77.40
2018-02-20T06:11:33.837Z,70.57
2018-02-20T06:14:01.376Z,63.10
2018-02-20T06:16:29.655Z,63.13
2018-02-20T06:18:57.199Z,70.18
2018-02-20T06:21:26.450Z,67.12
2018-02-20T06:23:53.972Z,71.03
2018-02-20T06:26:21.495Z,64.12
2018-02-20T06:28:49.220Z,63.92
2018-02-20T06:31:16.744Z,66.80
2018-02-20T06:33:45.036Z,75.05
2018-02-20T06:36:12.636Z,72.85
2018-02-20T06:38:40.173Z,67.68
2018-02-20T06:41:07.802Z,73.43
2018-02-20T06:43:36.088Z,65.93
2018-02-20T06:46:03.618Z,69.78
2018-02-20T06:48:31.175Z,73.85
2018-02-20T06:50:58.681Z,74.03
2018-02-20T06:53:26.452Z,70.12
2018-02-20T06:55:54.030Z,69.47
2018-02-20T06:58:23.063Z,70.65
2018-02-20T07:00:50.699Z,81.65
2018-02-20T07:03:18.227Z,72.40
2018-02-20T07:05:45.730Z,65.10
2018-02-20T07:08:13.344Z,73.55
2018-02-20T07:10:40.868Z,80.38
2018-02-20T07:13:08.484Z,69.15
2018-02-20T07:15:35.999Z,67.35
2018-02-20T07:18:04.291Z,72.05
2018-02-20T07:20:31.830Z,69.10
2018-02-20T07:23:00.156Z,65.28
2018-02-20T07:25:27.926Z,72.50
2018-02-20T07:27:55.531Z,68.60
2018-02-20T07:30:23.044Z,70.15
2018-02-20T07:32:50.600Z,68.00
2018-02-20T07:35:18.259Z,72.05
2018-02-20T07:37:45.755Z,75.37
2018-02-20T07:40:14.135Z,74.62
2018-02-20T07:42:41.756Z,61.25
2018-02-20T07:45:09.397Z,67.40
2018-02-20T07:47:36.956Z,74.12
2018-02-20T07:50:04.526Z,66.57
2018-02-20T07:52:32.039Z,80.10
2018-02-20T07:55:02.228Z,68.43
2018-02-20T07:57:29.735Z,77.35
2018-02-20T07:59:57.256Z,70.80
2018-02-20T08:02:24.906Z,71.22
2018-02-20T08:04:52.532Z,70.50
2018-02-20T08:07:20.819Z,66.95
2018-02-20T08:09:48.538Z,67.68
2018-02-20T08:12:16.116Z,70.47
2018-02-20T08:14:43.655Z,69.55
2018-02-20T08:17:11.158Z,63.67
2018-02-20T08:19:39.446Z,64.03
2018-02-20T08:22:07.034Z,60.50
2018-02-20T08:24:34.760Z,64.65
2018-02-20T08:27:03.055Z,78.53
2018-02-20T08:29:30.556Z,62.75
2018-02-20T08:31:58.054Z,69.20
2018-02-20T08:34:26.399Z,68.82
2018-02-20T08:36:54.021Z,63.83
2018-02-20T08:39:21.605Z,67.80
2018-02-20T08:41:49.476Z,59.80
2018-02-20T08:44:17.039Z,67.22
2018-02-20T08:46:44.566Z,66.82
2018-02-20T08:49:12.131Z,77.97
2018-02-20T08:51:39.650Z,69.72
2018-02-20T08:54:07.927Z,68.32
2018-02-20T08:56:36.286Z,58.35
2018-02-20T08:59:03.869Z,73.15
2018-02-20T09:01:32.158Z,61.40
2018-02-20T09:04:00.459Z,64.18
2018-02-20T09:06:28.285Z,65.50
2018-02-20T09:08:56.564Z,72.03
2018-02-20T09:11:24.945Z,70.35
2018-02-20T09:13:53.514Z,73.37
2018-02-20T09:16:21.141Z,71.18
2018-02-20T09:18:48.727Z,70.30
2018-02-20T09:21:16.470Z,75.20
2018-02-20T09:23:44.071Z,65.80
2018-02-20T09:26:11.790Z,70.40
2018-02-20T09:28:39.312Z,75.97
2018-02-20T09:31:07.828Z,71.37
2018-02-20T09:33:35.347Z,93.43
2018-02-20T09:36:03.704Z,80.10
2018-02-20T09:38:32.071Z,64.82
2018-02-20T09:40:59.647Z,79.40
2018-02-20T09:43:27.175Z,72.20
2018-02-20T09:45:54.680Z,70.12
2018-02-20T09:48:22.960Z,73.05
2018-02-20T09:50:50.482Z,72.25
2018-02-20T09:53:18.024Z,82.47
2018-02-20T09:55:45.579Z,73.62
2018-02-20T09:58:13.101Z,64.78
2018-02-20T10:00:40.627Z,66.12
2018-02-20T10:03:08.183Z,66.60
2018-02-20T10:05:35.771Z,70.55
2018-02-20T10:08:03.240Z,70.22
2018-02-20T10:10:30.850Z,64.60
2018-02-20T10:12:58.381Z,68.03
2018-02-20T10:15:25.892Z,66.70
2018-02-20T10:17:53.445Z,69.65
2018-02-20T10:20:20.962Z,65.53
2018-02-20T10:22:48.511Z,63.47
2018-02-20T10:25:16.815Z,62.75
2018-02-20T10:27:44.362Z,67.18
2018-02-20T10:30:12.088Z,57.80
2018-02-20T10:32:40.409Z,62.67
2018-02-20T10:35:07.934Z,65.53
2018-02-20T10:37:36.219Z,58.55
2018-02-20T10:40:04.558Z,55.17
2018-02-20T10:42:32.135Z,53.58
2018-02-20T10:44:59.732Z,54.33
2018-02-20T10:47:27.311Z,50.90
2018-02-20T10:49:54.905Z,50.65
2018-02-20T10:52:22.498Z,45.33
2018-02-20T10:54:50.822Z,50.28
2018-02-20T10:57:18.391Z,48.42
2018-02-20T10:59:45.980Z,62.85
2018-02-20T11:02:13.755Z,55.83
2018-02-20T11:04:42.098Z,48.17
2018-02-20T11:07:09.654Z,45.70
2018-02-20T11:09:37.276Z,46.65
2018-02-20T11:12:04.860Z,41.47
2018-02-20T11:14:33.336Z,43.60
2018-02-20T11:17:00.923Z,46.17
2018-02-20T11:19:28.632Z,42.85
2018-02-20T11:21:57.245Z,41.45
2018-02-20T11:24:24.837Z,42.10
2018-02-20T11:26:52.464Z,47.40
2018-02-20T11:29:20.066Z,38.13
2018-02-20T11:31:47.683Z,41.80
2018-02-20T11:34:15.285Z,38.08
2018-02-20T11:36:42.881Z,37.30
2018-02-20T11:39:11.213Z,41.03
2018-02-20T11:41:56.009Z,39.33
2018-02-20T11:44:25.355Z,38.92
2018-02-20T11:46:55.180Z,41.85
2018-02-20T11:49:26.352Z,38.45
2018-02-20T11:51:53.980Z,40.60
2018-02-20T11:54:21.596Z,35.80
2018-02-20T11:56:49.974Z,33.53
2018-02-20T11:59:18.321Z,35.58
2018-02-20T12:01:45.901Z,35.33
2018-02-20T12:04:13.492Z,36.40
2018-02-20T12:06:41.059Z,33.40
2018-02-20T12:09:08.720Z,35.80
2018-02-20T12:11:36.330Z,32.72
2018-02-20T12:14:03.985Z,31.05
2018-02-20T12:16:31.600Z,36.88
2018-02-20T12:18:59.217Z,46.78
2018-02-20T12:21:26.952Z,29.10
2018-02-20T12:23:54.540Z,35.47
2018-02-20T12:26:22.136Z,34.58
2018-02-20T12:28:50.678Z,30.85
2018-02-20T12:31:18.271Z,33.83
2018-02-20T12:33:46.617Z,32.25
2018-02-20T12:36:14.200Z,33.15
2018-02-20T12:38:41.822Z,30.60
2018-02-20T12:41:09.436Z,34.45
2018-02-20T12:43:37.045Z,33.00
2018-02-20T12:46:04.626Z,34.47
2018-02-20T12:48:32.184Z,36.28
2018-02-20T12:50:59.743Z,35.90
2018-02-20T12:53:30.234Z,35.38
2018-02-20T12:55:57.840Z,33.67
2018-02-20T12:58:25.423Z,33.17
2018-02-20T13:00:53.145Z,32.05
2018-02-20T13:03:20.724Z,34.78
2018-02-20T13:05:48.304Z,36.00
2018-02-20T13:08:15.865Z,37.22
2018-02-20T13:10:43.440Z,30.75
2018-02-20T13:13:11.354Z,37.33
2018-02-20T13:15:38.936Z,39.20
2018-02-20T13:18:06.507Z,32.15
2018-02-20T13:20:34.100Z,30.58
2018-02-20T13:23:01.681Z,37.05
2018-02-20T13:25:29.242Z,31.17
2018-02-20T13:27:57.009Z,31.55
2018-02-20T13:30:24.725Z,33.70
2018-02-20T13:32:52.446Z,34.20
2018-02-20T13:35:20.012Z,34.67
2018-02-20T13:37:47.633Z,40.17
2018-02-20T13:40:15.956Z,32.28
2018-02-20T13:42:43.620Z,36.20
2018-02-20T13:45:11.368Z,35.20
2018-02-20T13:47:38.927Z,31.08
2018-02-20T13:50:06.532Z,29.33
2018-02-20T13:52:34.119Z,34.35
2018-02-20T13:55:01.752Z,33.85
2018-02-20T13:57:29.343Z,32.50
2018-02-20T13:59:57.706Z,34.30
2018-02-20T14:02:25.329Z,30.98
2018-02-20T14:04:52.908Z,31.52
2018-02-20T14:07:20.524Z,30.48
2018-02-20T14:09:48.083Z,32.17
2018-02-20T14:12:15.657Z,30.20
2018-02-20T14:14:43.406Z,31.87
2018-02-20T14:17:10.949Z,32.13
2018-02-20T14:19:38.505Z,35.88
2018-02-20T14:22:06.903Z,34.22
2018-02-20T14:24:34.493Z,31.02
2018-02-20T14:27:02.256Z,35.28
2018-02-20T14:29:29.826Z,36.67
2018-02-20T14:31:57.388Z,28.75
2018-02-20T14:34:25.718Z,29.95
2018-02-20T14:36:54.097Z,27.52
2018-02-20T14:39:22.441Z,25.83
2018-02-20T14:41:50.065Z,26.35
2018-02-20T14:44:17.616Z,30.02
2018-02-20T14:46:45.175Z,26.15
2018-02-20T14:49:12.753Z,24.98
2018-02-20T14:51:40.357Z,25.77
2018-02-20T14:54:08.710Z,31.25
2018-02-20T14:56:36.320Z,33.35
2018-02-20T14:59:04.684Z,25.25
2018-02-20T15:01:32.258Z,28.30
2018-02-20T15:04:00.671Z,28.48
2018-02-20T15:06:28.268Z,20.20
2018-02-20T15:08:55.900Z,23.38
2018-02-20T15:11:23.490Z,27.77
2018-02-20T15:13:51.055Z,20.25
2018-02-20T15:16:18.668Z,23.23
2018-02-20T15:18:46.467Z,23.23
2018-02-20T15:21:14.116Z,20.67
2018-02-20T15:23:42.450Z,24.02
2018-02-20T15:26:10.784Z,23.38
2018-02-20T15:28:38.448Z,21.90
2018-02-20T15:31:06.026Z,27.90
2018-02-20T15:33:33.639Z,27.60
2018-02-20T15:36:01.253Z,22.33
2018-02-20T15:38:28.855Z,22.73
2018-02-20T15:40:56.442Z,23.45
2018-02-20T15:43:24.020Z,22.45
2018-02-20T15:45:51.594Z,23.33
2018-02-20T15:48:19.149Z,23.48
2018-02-20T15:50:46.763Z,18.77
2018-02-20T15:53:14.344Z,25.12
2018-02-20T15:55:41.957Z,17.40
2018-02-20T15:58:09.566Z,19.87
2018-02-20T16:00:37.227Z,20.50
2018-02-20T16:03:04.805Z,20.98
2018-02-20T16:05:32.364Z,19.50
2018-02-20T16:07:59.943Z,18.87
2018-02-20T16:10:27.530Z,24.52
2018-02-20T16:12:55.104Z,19.10
2018-02-20T16:15:22.758Z,23.45
2018-02-20T16:17:51.120Z,24.95
2018-02-20T16:20:18.728Z,24.58
2018-02-20T16:22:46.444Z,27.92
2018-02-20T16:25:15.753Z,28.45
2018-02-20T16:27:43.373Z,29.10
2018-02-20T16:30:10.950Z,25.33
2018-02-20T16:32:38.523Z,25.02
2018-02-20T16:35:06.133Z,31.92
2018-02-20T16:37:33.719Z,29.00
2018-02-20T16:40:01.296Z,25.40
2018-02-20T16:42:28.884Z,18.27
2018-02-20T16:44:57.507Z,21.02
2018-02-20T16:47:25.110Z,24.35
2018-02-20T16:49:52.704Z,16.83
2018-02-20T16:52:20.700Z,23.95
2018-02-20T16:54:50.059Z,24.23
2018-02-20T16:57:17.795Z,23.70
2018-02-20T16:59:46.565Z,23.58
2018-02-20T17:02:14.185Z,20.00
2018-02-20T17:04:41.762Z,30.92
2018-02-20T17:07:09.332Z,25.42
2018-02-20T17:09:37.013Z,18.30
2018-02-20T17:12:04.579Z,23.02
2018-02-20T17:14:32.150Z,23.45
2018-02-20T17:16:59.830Z,25.52
2018-02-20T17:19:28.743Z,30.80
2018-02-20T17:21:56.467Z,28.33
2018-02-20T17:24:24.077Z,28.25
2018-02-20T17:26:51.682Z,23.00
2018-02-20T17:29:19.322Z,27.95
2018-02-20T17:31:46.913Z,20.58
2018-02-20T17:34:14.538Z,24.83
2018-02-20T17:36:42.830Z,24.80
2018-02-20T17:39:10.413Z,23.17
2018-02-20T17:41:38.001Z,21.30
2018-02-20T17:44:06.328Z,25.50
2018-02-20T17:46:34.614Z,22.70
2018-02-20T17:49:03.222Z,16.52
2018-02-20T17:51:30.932Z,17.65
2018-02-20T17:53:58.606Z,20.65
2018-02-20T17:56:26.458Z,21.48
2018-02-20T17:58:54.077Z,25.60
2018-02-20T18:01:23.267Z,23.70
2018-02-20T18:03:50.896Z,22.58
2018-02-20T18:06:18.463Z,22.52
2018-02-20T18:08:46.101Z,21.55
2018-02-20T18:11:13.906Z,22.17
2018-02-20T18:13:41.734Z,25.35
2018-02-20T18:16:09.327Z,21.45
2018-02-20T18:18:36.904Z,25.10
2018-02-20T18:21:04.468Z,18.25
2018-02-20T18:23:32.431Z,23.90
2018-02-20T18:26:00.046Z,24.23
2018-02-20T18:28:27.724Z,38.28
2018-02-20T18:30:56.930Z,22.73
2018-02-20T18:33:26.811Z,53.50
2018-02-20T18:35:57.279Z,28.35
2018-02-20T18:38:27.554Z,24.67
2018-02-20T18:40:57.498Z,25.73
2018-02-20T18:43:25.102Z,30.40
2018-02-20T18:45:52.866Z,22.25
2018-02-20T18:48:22.954Z,22.65
2018-02-20T18:50:50.579Z,28.00
2018-02-20T18:53:20.708Z,22.35
2018-02-20T18:55:50.167Z,31.60
2018-02-20T18:58:20.061Z,32.10
2018-02-20T19:00:47.966Z,23.92
2018-02-20T19:03:17.276Z,22.35
2018-02-20T19:05:47.124Z,27.58
2018-02-20T19:08:14.740Z,23.10
2018-02-20T19:10:43.114Z,23.95
2018-02-20T19:13:10.765Z,29.87
2018-02-20T19:15:38.691Z,47.80
2018-02-20T19:18:06.348Z,36.45
2018-02-20T19:20:34.036Z,23.25
2018-02-20T19:23:01.628Z,33.13
2018-02-20T19:25:29.213Z,32.20
2018-02-20T19:27:57.575Z,27.25
2018-02-20T19:30:25.375Z,31.60
2018-02-20T19:32:53.715Z,30.27
2018-02-20T19:35:21.354Z,30.30
2018-02-20T19:37:49.110Z,33.65
2018-02-20T19:40:16.713Z,34.63
2018-02-20T19:42:44.275Z,37.85
2018-02-20T19:45:11.911Z,33.47
2018-02-20T19:47:39.591Z,30.37
2018-02-20T19:50:07.157Z,29.25
2018-02-20T19:52:35.519Z,34.45
2018-02-20T19:55:03.119Z,31.12
2018-02-20T19:57:32.681Z,32.30
2018-02-20T20:00:00.305Z,35.10
2018-02-20T20:02:27.931Z,31.00
2018-02-20T20:04:55.536Z,33.08
2018-02-20T20:07:23.374Z,37.22
2018-02-20T20:09:51.031Z,39.40
2018-02-20T20:12:19.464Z,32.47
2018-02-20T20:14:47.032Z,39.78
2018-02-20T20:17:14.593Z,37.90
2018-02-20T20:19:42.281Z,40.40
2018-02-20T20:22:09.949Z,43.42
2018-02-20T20:24:37.631Z,36.80
2018-02-20T20:27:05.207Z,34.63
2018-02-20T20:29:32.866Z,29.92
2018-02-20T20:32:00.434Z,34.47
2018-02-20T20:34:28.166Z,33.20
2018-02-20T20:36:56.768Z,33.42
2018-02-20T20:39:24.477Z,36.05
2018-02-20T20:41:52.070Z,37.15
2018-02-20T20:44:19.641Z,36.30
2018-02-20T20:46:47.247Z,34.58
2018-02-20T20:49:14.973Z,38.88
2018-02-20T20:51:42.659Z,37.35
2018-02-20T20:54:10.265Z,35.15
2018-02-20T20:56:37.838Z,40.03
2018-02-20T20:59:05.405Z,36.38
2018-02-20T21:01:33.752Z,36.97
2018-02-20T21:04:01.329Z,38.88
2018-02-20T21:06:28.958Z,37.25
2018-02-20T21:08:56.580Z,46.75
2018-02-20T21:11:24.916Z,33.97
2018-02-20T21:13:52.501Z,35.05
2018-02-20T21:16:20.211Z,41.37
2018-02-20T21:18:47.800Z,38.17
2018-02-20T21:21:15.362Z,41.17
2018-02-20T21:23:42.941Z,35.42
2018-02-20T21:26:10.513Z,35.90
2018-02-20T21:28:38.076Z,41.08
2018-02-20T21:31:06.425Z,37.47
2018-02-20T21:33:34.012Z,37.83
2018-02-20T21:36:02.372Z,42.50
2018-02-20T21:38:29.972Z,38.22
2018-02-20T21:40:58.327Z,33.50
2018-02-20T21:43:25.896Z,32.53
2018-02-20T21:45:54.247Z,33.53
2018-02-20T21:48:21.851Z,33.17
2018-02-20T21:50:50.266Z,33.47
2018-02-20T21:53:17.811Z,35.70
2018-02-20T21:55:45.450Z,38.67
2018-02-20T21:58:13.868Z,38.10
2018-02-20T22:00:41.478Z,38.28
2018-02-20T22:03:09.141Z,35.50
2018-02-20T22:05:36.823Z,55.70
2018-02-20T22:08:05.234Z,38.03
2018-02-20T22:10:32.831Z,30.45
2018-02-20T22:13:00.514Z,32.63
2018-02-20T22:15:29.022Z,35.75
2018-02-20T22:17:56.653Z,39.33
2018-02-20T22:20:25.046Z,33.50
2018-02-20T22:22:52.640Z,33.55
2018-02-20T22:25:20.952Z,60.08
2018-02-20T22:27:48.567Z,33.10
2018-02-20T22:30:16.184Z,28.60
2018-02-20T22:32:43.883Z,30.50
2018-02-20T22:35:11.462Z,32.15
2018-02-20T22:37:39.043Z,29.27
2018-02-20T22:40:06.789Z,30.33
2018-02-20T22:42:34.356Z,30.95
2018-02-20T22:45:02.104Z,27.90
2018-02-20T22:47:29.690Z,33.80
2018-02-20T22:49:57.366Z,28.92
2018-02-20T22:52:24.933Z,34.65
2018-02-20T22:54:53.038Z,31.08
2018-02-20T22:57:22.050Z,34.42
2018-02-20T22:59:50.467Z,29.63
2018-02-20T23:02:18.128Z,32.72
2018-02-20T23:04:45.733Z,29.15
2018-02-20T23:07:14.177Z,29.98
2018-02-20T23:09:41.744Z,33.55
2018-02-20T23:12:09.299Z,31.65
2018-02-20T23:14:36.855Z,31.20
2018-02-20T23:17:04.425Z,29.50
2018-02-20T23:19:32.256Z,27.13
2018-02-20T23:21:59.822Z,31.90
2018-02-20T23:24:27.417Z,27.50
2018-02-20T23:26:55.000Z,31.58
2018-02-20T23:29:22.579Z,30.65
2018-02-20T23:31:50.134Z,29.35
2018-02-20T23:34:17.703Z,35.80
2018-02-20T23:36:45.266Z,35.20
2018-02-20T23:39:12.891Z,28.42
2018-02-20T23:41:40.489Z,32.92
2018-02-20T23:44:08.071Z,34.20
2018-02-20T23:46:35.653Z,24.08
2018-02-20T23:49:04.203Z,34.05
2018-02-20T23:51:34.679Z,28.73
2018-02-20T23:54:02.248Z,28.83
2018-02-20T23:56:30.663Z,38.28
2018-02-20T23:58:58.227Z,33.95
